Northfield, Minnesota
Current Conditions -  °F | °C
As of 2:14 AM on Monday 24 Nov 2014 (Local Time) from KSYN Reporting Station
Light Snow Light Snow  
Wind Chill: 21°   Ceiling: 2100
Heat Index: 32°   Visibility: 4mi
Dew Point: 28°   Wind: 15mph
Humidity: 87%   Direction: 300°WNW
Pressure: 29.29"   Gusts: 21mph
Location:  44.45°N, 93.15°W
Report Text: KSYN 240814Z AUTO 30013G18KT 4SM -SN SCT009 SCT013 OVC021 00/M02 A2929 RMK AO2 T10011020
Loading
Personal Weather Stations






























Interactive Weather Map New forecast layout! Learn more

10-Day Weather Forecast

Advertisements
Track Severe Weather on mobile